createdAt,value
2018-07-28T00:01:24.397Z,99181.11
2018-07-28T00:03:52.118Z,99184.23
2018-07-28T00:06:19.801Z,99182.02
2018-07-28T00:08:47.474Z,99179.17
2018-07-28T00:11:15.182Z,99180.64
2018-07-28T00:13:43.066Z,99179.05
2018-07-28T00:16:10.725Z,99177.64
2018-07-28T00:18:38.439Z,99179.19
2018-07-28T00:21:06.121Z,99168.51
2018-07-28T00:23:33.794Z,99169.17
2018-07-28T00:26:07.195Z,99158.55
2018-07-28T00:28:34.990Z,99157.49
2018-07-28T00:31:02.689Z,99154.86
2018-07-28T00:33:30.420Z,99151.92
2018-07-28T00:35:58.049Z,99148.08
2018-07-28T00:38:25.770Z,99150.26
2018-07-28T00:40:53.510Z,99145.69
2018-07-28T00:43:21.198Z,99136.69
2018-07-28T00:45:48.849Z,99128.31
2018-07-28T00:48:16.494Z,99133.64
2018-07-28T00:50:44.180Z,99131.50
2018-07-28T00:53:11.890Z,99135.27
2018-07-28T00:55:39.634Z,99140.95
2018-07-28T00:58:07.593Z,99140.67
2018-07-28T01:00:35.341Z,99146.02
2018-07-28T01:03:03.169Z,99146.06
2018-07-28T01:05:31.022Z,99140.99
2018-07-28T01:07:58.698Z,99139.19
2018-07-28T01:10:36.029Z,99141.97
2018-07-28T01:13:03.717Z,99146.59
2018-07-28T01:15:31.382Z,99139.09
2018-07-28T01:17:59.246Z,99139.16
2018-07-28T01:20:26.951Z,99143.62
2018-07-28T01:22:54.609Z,99135.30
2018-07-28T01:25:22.370Z,99138.81
2018-07-28T01:27:50.038Z,99142.60
2018-07-28T01:30:22.674Z,99136.48
2018-07-28T01:32:50.316Z,99132.84
2018-07-28T01:35:17.997Z,99126.56
2018-07-28T01:37:45.901Z,99125.58
2018-07-28T01:40:13.587Z,99128.58
2018-07-28T01:42:41.270Z,99127.20
2018-07-28T01:45:09.254Z,99128.55
2018-07-28T01:47:36.964Z,99131.31
2018-07-28T01:50:06.523Z,99133.20
2018-07-28T01:52:34.333Z,99131.82
2018-07-28T01:55:02.049Z,99136.40
2018-07-28T01:57:29.820Z,99135.55
2018-07-28T01:59:57.444Z,99142.70
2018-07-28T02:02:25.120Z,99171.52
2018-07-28T02:04:52.689Z,99222.64
2018-07-28T02:07:20.289Z,99191.64
2018-07-28T02:09:47.907Z,99200.19
2018-07-28T02:15:13.209Z,99186.80
2018-07-28T02:17:40.858Z,99199.38
2018-07-28T02:20:08.684Z,99202.34
2018-07-28T02:22:36.388Z,99191.39
2018-07-28T02:25:06.982Z,99191.98
2018-07-28T02:27:34.585Z,99192.58
2018-07-28T02:30:02.229Z,99218.75
2018-07-28T02:32:29.892Z,99205.89
2018-07-28T02:34:57.604Z,99209.11
2018-07-28T02:37:25.224Z,99214.16
2018-07-28T02:39:52.838Z,99218.16
2018-07-28T02:42:20.508Z,99219.52
2018-07-28T02:44:48.139Z,99219.50
2018-07-28T02:47:15.790Z,99217.64
2018-07-28T02:49:43.479Z,99211.50
2018-07-28T02:52:11.090Z,99212.83
2018-07-28T02:54:38.797Z,99215.75
2018-07-28T02:57:06.443Z,99214.17
2018-07-28T02:59:34.073Z,99231.82
2018-07-28T03:02:01.821Z,99233.68
2018-07-28T03:04:29.493Z,99227.27
2018-07-28T03:06:57.114Z,99233.17
2018-07-28T03:09:24.737Z,99227.02
2018-07-28T03:11:52.378Z,99229.42
2018-07-28T03:14:20.112Z,99236.91
2018-07-28T03:16:47.693Z,99248.41
2018-07-28T03:19:15.405Z,99266.28
2018-07-28T03:21:42.999Z,99283.15
2018-07-28T03:24:10.623Z,99263.63
2018-07-28T03:26:38.205Z,99254.84
2018-07-28T03:29:05.904Z,99264.44
2018-07-28T03:31:33.609Z,99263.37
2018-07-28T03:34:01.241Z,99258.58
2018-07-28T03:36:28.905Z,99258.55
2018-07-28T03:38:56.567Z,99250.55
2018-07-28T03:41:24.240Z,99246.01
2018-07-28T03:43:51.825Z,99252.40
2018-07-28T03:46:19.615Z,99237.72
2018-07-28T03:48:47.277Z,99236.14
2018-07-28T03:51:14.913Z,99252.95
2018-07-28T03:53:42.564Z,99239.58
2018-07-28T03:56:10.285Z,99236.13
2018-07-28T03:58:37.877Z,99232.41
2018-07-28T04:01:05.662Z,99226.27
2018-07-28T04:03:33.425Z,99222.26
2018-07-28T04:06:01.193Z,99218.78
2018-07-28T04:08:28.804Z,99208.08
2018-07-28T04:10:56.640Z,99211.30
2018-07-28T04:13:24.660Z,99213.16
2018-07-28T04:15:52.252Z,99196.31
2018-07-28T04:18:19.886Z,99177.66
2018-07-28T04:20:47.652Z,99162.16
2018-07-28T04:23:15.308Z,99148.29
2018-07-28T04:25:42.976Z,99141.34
2018-07-28T04:28:10.561Z,99134.67
2018-07-28T04:30:38.381Z,99140.79
2018-07-28T04:33:05.989Z,99139.48
2018-07-28T04:35:33.573Z,99133.59
2018-07-28T04:38:01.177Z,99118.93
2018-07-28T04:40:28.815Z,99096.25
2018-07-28T04:42:56.412Z,99089.31
2018-07-28T04:45:24.008Z,99094.38
2018-07-28T04:47:51.590Z,99100.25
2018-07-28T04:50:19.185Z,99097.83
2018-07-28T04:52:46.772Z,99095.95
2018-07-28T04:55:14.378Z,99098.34
2018-07-28T04:57:41.965Z,99092.72
2018-07-28T05:00:09.613Z,99096.70
2018-07-28T05:02:37.190Z,99093.22
2018-07-28T05:05:04.822Z,99095.92
2018-07-28T05:07:32.484Z,99096.47
2018-07-28T05:10:00.043Z,99114.36
2018-07-28T05:12:27.689Z,99116.48
2018-07-28T05:14:55.439Z,99106.59
2018-07-28T05:17:23.100Z,99109.26
2018-07-28T05:19:50.717Z,99112.72
2018-07-28T05:22:18.433Z,99130.30
2018-07-28T05:24:46.141Z,99160.20
2018-07-28T05:27:13.856Z,99201.63
2018-07-28T05:29:41.605Z,99253.45
2018-07-28T05:32:09.113Z,99311.45
2018-07-28T05:34:36.741Z,99317.05
2018-07-28T05:37:04.639Z,99306.91
2018-07-28T05:39:32.202Z,99334.16
2018-07-28T05:41:59.822Z,99321.88
2018-07-28T05:44:27.421Z,99324.02
2018-07-28T05:46:55.046Z,99331.50
2018-07-28T05:49:22.745Z,99341.91
2018-07-28T05:51:50.368Z,99333.35
2018-07-28T05:54:18.098Z,99334.44
2018-07-28T05:56:45.685Z,99328.57
2018-07-28T05:59:13.378Z,99333.38
2018-07-28T06:01:40.982Z,99327.23
2018-07-28T06:04:08.640Z,99319.19
2018-07-28T06:06:36.378Z,99316.55
2018-07-28T06:09:06.782Z,99313.85
2018-07-28T06:11:34.722Z,99308.42
2018-07-28T06:14:02.588Z,99304.14
2018-07-28T06:16:30.158Z,99315.09
2018-07-28T06:18:57.845Z,99310.84
2018-07-28T06:21:25.508Z,99303.17
2018-07-28T06:23:53.109Z,99283.67
2018-07-28T06:26:20.731Z,99263.05
2018-07-28T06:28:48.409Z,99258.17
2018-07-28T06:31:16.051Z,99247.19
2018-07-28T06:33:43.701Z,99239.72
2018-07-28T06:36:11.308Z,99258.68
2018-07-28T06:38:39.020Z,99260.34
2018-07-28T06:41:06.738Z,99255.56
2018-07-28T06:43:34.357Z,99250.47
2018-07-28T06:46:02.119Z,99248.59
2018-07-28T06:48:29.701Z,99254.20
2018-07-28T06:50:57.388Z,99263.05
2018-07-28T06:53:25.026Z,99262.30
2018-07-28T06:55:52.664Z,99261.74
2018-07-28T06:58:20.576Z,99251.33
2018-07-28T07:03:22.600Z,99269.24
2018-07-28T07:05:50.297Z,99255.63
2018-07-28T07:08:17.889Z,99267.38
2018-07-28T07:10:45.568Z,99268.70
2018-07-28T07:13:13.376Z,99275.13
2018-07-28T07:15:41.189Z,99268.13
2018-07-28T07:18:08.809Z,99262.23
2018-07-28T07:20:36.474Z,99265.81
2018-07-28T07:23:04.165Z,99270.11
2018-07-28T07:25:31.786Z,99272.98
2018-07-28T07:27:59.451Z,99274.50
2018-07-28T07:30:27.116Z,99273.52
2018-07-28T07:32:54.822Z,99276.23
2018-07-28T07:35:22.729Z,99276.60
2018-07-28T07:37:50.569Z,99284.72
2018-07-28T07:40:18.170Z,99287.08
2018-07-28T07:42:45.845Z,99291.50
2018-07-28T07:45:13.445Z,99293.92
2018-07-28T07:47:41.142Z,99304.28
2018-07-28T07:50:08.665Z,99308.14
2018-07-28T07:52:36.277Z,99304.22
2018-07-28T07:55:04.009Z,99304.87
2018-07-28T07:57:31.709Z,99304.00
2018-07-28T07:59:59.304Z,99300.24
2018-07-28T08:02:26.990Z,99300.98
2018-07-28T08:04:54.723Z,99306.02
2018-07-28T08:07:22.328Z,99305.57
2018-07-28T08:09:50.093Z,99309.22
2018-07-28T08:12:17.740Z,99310.66
2018-07-28T08:14:45.349Z,99308.72
2018-07-28T08:17:13.022Z,99315.94
2018-07-28T08:19:40.657Z,99310.16
2018-07-28T08:22:08.342Z,99309.11
2018-07-28T08:24:35.985Z,99311.16
2018-07-28T08:27:03.694Z,99312.80
2018-07-28T08:29:31.336Z,99317.30
2018-07-28T08:31:58.977Z,99322.20
2018-07-28T08:34:26.640Z,99322.66
2018-07-28T08:36:54.246Z,99311.07
2018-07-28T08:39:21.961Z,99316.70
2018-07-28T08:41:49.611Z,99314.22
2018-07-28T08:44:17.198Z,99315.48
2018-07-28T08:46:44.966Z,99316.58
2018-07-28T08:49:12.677Z,99310.00
2018-07-28T08:51:40.566Z,99322.94
2018-07-28T08:54:08.281Z,99321.79
2018-07-28T08:56:35.945Z,99330.12
2018-07-28T08:59:03.682Z,99330.75
2018-07-28T09:01:31.369Z,99329.41
2018-07-28T09:03:58.965Z,99328.22
2018-07-28T09:06:26.805Z,99327.61
2018-07-28T09:08:54.429Z,99327.91
2018-07-28T09:11:22.381Z,99328.08
2018-07-28T09:13:50.125Z,99322.30
2018-07-28T09:16:17.725Z,99333.08
2018-07-28T09:18:45.406Z,99346.48
2018-07-28T09:21:13.650Z,99346.70
2018-07-28T09:23:41.342Z,99352.73
2018-07-28T09:26:08.924Z,99351.66
2018-07-28T09:28:36.517Z,99347.21
2018-07-28T09:31:04.354Z,99340.53
2018-07-28T09:33:31.972Z,99348.72
2018-07-28T09:35:59.805Z,99346.78
2018-07-28T09:38:27.546Z,99344.53
2018-07-28T09:40:55.248Z,99352.56
2018-07-28T09:43:23.096Z,99348.94
2018-07-28T09:45:50.707Z,99341.39
2018-07-28T09:48:18.322Z,99345.22
2018-07-28T09:50:45.982Z,99350.92
2018-07-28T09:53:13.624Z,99358.61
2018-07-28T09:55:41.303Z,99348.83
2018-07-28T09:58:08.897Z,99346.13
2018-07-28T10:00:42.181Z,99343.08
2018-07-28T10:03:09.889Z,99337.41
2018-07-28T10:05:37.669Z,99339.69
2018-07-28T10:08:05.370Z,99338.36
2018-07-28T10:10:36.940Z,99341.92
2018-07-28T10:13:04.645Z,99353.75
2018-07-28T10:15:32.249Z,99368.31
2018-07-28T10:17:59.930Z,99364.75
2018-07-28T10:20:27.541Z,99372.67
2018-07-28T10:22:55.228Z,99375.16
2018-07-28T10:25:22.746Z,99369.42
2018-07-28T10:27:50.395Z,99366.26
2018-07-28T10:30:18.082Z,99374.14
2018-07-28T10:32:45.593Z,99366.35
2018-07-28T10:35:13.319Z,99363.11
2018-07-28T10:37:40.917Z,99368.42
2018-07-28T10:40:09.274Z,99364.81
2018-07-28T10:42:37.293Z,99373.19
2018-07-28T10:45:05.089Z,99370.49
2018-07-28T10:47:32.718Z,99373.33
2018-07-28T10:50:00.383Z,99374.13
2018-07-28T10:52:28.085Z,99372.53
2018-07-28T10:54:55.710Z,99383.50
2018-07-28T10:57:24.244Z,99381.95
2018-07-28T10:59:52.578Z,99381.07
2018-07-28T11:02:20.597Z,99380.65
2018-07-28T11:04:48.233Z,99384.52
2018-07-28T11:07:16.009Z,99393.44
2018-07-28T11:09:44.013Z,99393.59
2018-07-28T11:12:11.673Z,99391.33
2018-07-28T11:14:39.414Z,99407.05
2018-07-28T11:17:07.053Z,99403.31
2018-07-28T11:19:34.948Z,99415.38
2018-07-28T11:22:02.589Z,99414.13
2018-07-28T11:24:30.198Z,99413.58
2018-07-28T11:26:57.865Z,99415.61
2018-07-28T11:29:25.817Z,99414.05
2018-07-28T11:32:11.136Z,99414.93
2018-07-28T11:34:56.177Z,99415.25
2018-07-28T11:38:01.117Z,99415.94
2018-07-28T11:40:41.336Z,99423.47
2018-07-28T11:43:26.237Z,99431.00
2018-07-28T11:45:54.159Z,99428.46
2018-07-28T11:48:21.729Z,99440.64
2018-07-28T11:50:49.442Z,99432.30
2018-07-28T11:53:17.054Z,99437.83
2018-07-28T11:55:44.717Z,99437.22
2018-07-28T11:58:12.317Z,99452.48
2018-07-28T12:00:39.922Z,99447.70
2018-07-28T12:03:07.595Z,99440.95
2018-07-28T12:05:35.262Z,99449.38
2018-07-28T12:08:02.998Z,99461.53
2018-07-28T12:10:36.890Z,99449.55
2018-07-28T12:13:04.641Z,99464.56
2018-07-28T12:15:32.337Z,99458.79
2018-07-28T12:18:00.017Z,99459.61
2018-07-28T12:20:27.652Z,99467.33
2018-07-28T12:22:55.302Z,99472.28
2018-07-28T12:25:22.938Z,99466.82
2018-07-28T12:27:50.649Z,99472.19
2018-07-28T12:30:18.290Z,99476.45
2018-07-28T12:32:45.905Z,99470.94
2018-07-28T12:35:13.565Z,99470.88
2018-07-28T12:37:41.298Z,99470.02
2018-07-28T12:40:08.982Z,99469.92
2018-07-28T12:42:36.672Z,99466.51
2018-07-28T12:45:04.753Z,99464.48
2018-07-28T12:47:32.377Z,99467.13
2018-07-28T12:50:00.057Z,99464.20
2018-07-28T12:52:27.689Z,99461.64
2018-07-28T12:54:57.706Z,99461.31
2018-07-28T12:57:25.553Z,99459.25
2018-07-28T12:59:55.993Z,99461.94
2018-07-28T13:02:23.619Z,99468.89
2018-07-28T13:04:51.339Z,99479.27
2018-07-28T13:07:18.965Z,99473.02
2018-07-28T13:09:46.607Z,99484.41
2018-07-28T13:12:14.463Z,99487.58
2018-07-28T13:14:42.139Z,99488.38
2018-07-28T13:17:09.777Z,99483.39
2018-07-28T13:19:37.434Z,99485.81
2018-07-28T13:22:05.293Z,99484.68
2018-07-28T13:24:33.003Z,99493.77
2018-07-28T13:27:00.624Z,99496.91
2018-07-28T13:29:28.248Z,99498.41
2018-07-28T13:31:55.893Z,99502.28
2018-07-28T13:34:23.618Z,99502.88
2018-07-28T13:36:51.274Z,99505.33
2018-07-28T13:39:19.173Z,99513.09
2018-07-28T13:41:46.889Z,99527.62
2018-07-28T13:44:14.494Z,99536.34
2018-07-28T13:46:42.113Z,99541.66
2018-07-28T13:49:09.721Z,99539.05
2018-07-28T13:51:37.329Z,99549.41
2018-07-28T13:54:04.993Z,99539.31
2018-07-28T13:56:32.638Z,99536.28
2018-07-28T13:59:00.272Z,99539.56
2018-07-28T14:01:27.873Z,99543.33
2018-07-28T14:03:55.498Z,99543.78
2018-07-28T14:06:23.165Z,99544.67
2018-07-28T14:08:50.770Z,99544.42
2018-07-28T14:11:18.533Z,99544.80
2018-07-28T14:13:48.805Z,99545.92
2018-07-28T14:16:16.522Z,99541.02
2018-07-28T14:18:44.241Z,99541.20
2018-07-28T14:21:11.843Z,99536.63
2018-07-28T14:23:39.495Z,99534.23
2018-07-28T14:26:07.149Z,99526.44
2018-07-28T14:28:34.883Z,99517.92
2018-07-28T14:31:02.550Z,99520.43
2018-07-28T14:33:30.213Z,99511.66
2018-07-28T14:35:57.853Z,99519.73
2018-07-28T14:38:25.477Z,99520.41
2018-07-28T14:40:53.221Z,99524.52
2018-07-28T14:43:20.873Z,99526.20
2018-07-28T14:45:48.514Z,99531.55
2018-07-28T14:48:16.141Z,99536.83
2018-07-28T14:50:43.760Z,99526.83
2018-07-28T14:53:11.384Z,99528.44
2018-07-28T14:55:39.117Z,99534.03
2018-07-28T14:58:06.754Z,99536.30
2018-07-28T15:00:34.378Z,99531.17
2018-07-28T15:03:02.007Z,99525.23
2018-07-28T15:05:29.639Z,99522.64
2018-07-28T15:07:57.270Z,99524.61
2018-07-28T15:10:36.245Z,99522.80
2018-07-28T15:13:03.885Z,99531.32
2018-07-28T15:15:31.501Z,99527.06
2018-07-28T15:17:59.218Z,99526.20
2018-07-28T15:20:26.834Z,99531.84
2018-07-28T15:22:54.477Z,99528.30
2018-07-28T15:25:22.121Z,99536.19
2018-07-28T15:27:49.746Z,99536.19
2018-07-28T15:30:17.425Z,99539.42
2018-07-28T15:32:45.049Z,99525.42
2018-07-28T15:35:12.673Z,99529.70
2018-07-28T15:37:40.293Z,99536.91
2018-07-28T15:40:07.961Z,99534.84
2018-07-28T15:42:35.598Z,99531.42
2018-07-28T15:45:03.474Z,99532.34
2018-07-28T15:47:31.102Z,99531.34
2018-07-28T15:49:58.709Z,99520.55
2018-07-28T15:52:26.333Z,99522.62
2018-07-28T15:54:53.947Z,99527.81
2018-07-28T15:57:21.624Z,99529.68
2018-07-28T15:59:49.249Z,99525.91
2018-07-28T16:02:16.859Z,99529.70
2018-07-28T16:04:44.478Z,99529.89
2018-07-28T16:07:12.105Z,99524.12
2018-07-28T16:09:39.854Z,99525.41
2018-07-28T16:12:07.517Z,99521.60
2018-07-28T16:14:35.137Z,99531.84
2018-07-28T16:17:02.769Z,99532.04
2018-07-28T16:19:30.400Z,99529.25
2018-07-28T16:21:58.009Z,99540.07
2018-07-28T16:24:25.633Z,99537.23
2018-07-28T16:26:53.270Z,99536.84
2018-07-28T16:29:20.901Z,99539.59
2018-07-28T16:31:48.587Z,99542.86
2018-07-28T16:34:16.188Z,99539.48
2018-07-28T16:36:43.821Z,99552.49
2018-07-28T16:39:11.505Z,99551.39
2018-07-28T16:41:39.159Z,99548.50
2018-07-28T16:44:06.900Z,99542.70
2018-07-28T16:46:34.555Z,99546.38
2018-07-28T16:49:02.127Z,99548.16
2018-07-28T16:51:29.733Z,99547.12
2018-07-28T16:53:57.361Z,99547.68
2018-07-28T16:56:25.002Z,99544.73
2018-07-28T16:58:52.675Z,99550.70
2018-07-28T17:01:20.247Z,99546.09
2018-07-28T17:03:47.936Z,99553.09
2018-07-28T17:06:15.581Z,99559.56
2018-07-28T17:08:43.173Z,99561.56
2018-07-28T17:11:11.102Z,99557.46
2018-07-28T17:13:38.787Z,99562.58
2018-07-28T17:16:06.417Z,99562.72
2018-07-28T17:18:34.037Z,99563.25
2018-07-28T17:21:01.626Z,99559.44
2018-07-28T17:23:29.233Z,99558.59
2018-07-28T17:25:56.894Z,99558.81
2018-07-28T17:28:24.505Z,99566.87
2018-07-28T17:30:52.152Z,99564.66
2018-07-28T17:33:19.741Z,99576.72
2018-07-28T17:35:47.345Z,99577.30
2018-07-28T17:38:14.983Z,99582.92
2018-07-28T17:40:42.599Z,99582.75
2018-07-28T17:43:10.245Z,99584.16
2018-07-28T17:45:37.897Z,99582.63
2018-07-28T17:48:05.528Z,99582.69
2018-07-28T17:50:33.433Z,99590.81
2018-07-28T17:53:01.046Z,99587.40
2018-07-28T17:55:28.731Z,99593.02
2018-07-28T17:57:56.439Z,99600.66
2018-07-28T18:00:24.118Z,99596.23
2018-07-28T18:02:52.059Z,99604.30
2018-07-28T18:05:19.762Z,99602.18
2018-07-28T18:07:47.766Z,99594.22
2018-07-28T18:10:15.686Z,99599.40
2018-07-28T18:12:43.362Z,99603.08
2018-07-28T18:15:11.060Z,99601.44
2018-07-28T18:17:38.694Z,99605.06
2018-07-28T18:20:06.570Z,99611.44
2018-07-28T18:22:34.199Z,99615.02
2018-07-28T18:25:01.966Z,99611.77
2018-07-28T18:27:29.715Z,99607.85
2018-07-28T18:29:57.367Z,99622.74
2018-07-28T18:32:25.042Z,99620.31
2018-07-28T18:34:52.934Z,99625.06
2018-07-28T18:37:20.978Z,99625.94
2018-07-28T18:39:48.798Z,99635.41
2018-07-28T18:42:16.450Z,99640.37
2018-07-28T18:44:44.184Z,99644.62
2018-07-28T18:47:12.107Z,99648.33
2018-07-28T18:49:39.807Z,99644.72
2018-07-28T18:52:07.978Z,99644.45
2018-07-28T18:54:35.660Z,99643.05
2018-07-28T18:57:03.694Z,99649.19
2018-07-28T18:59:31.368Z,99646.80
2018-07-28T19:01:59.038Z,99654.08
2018-07-28T19:04:26.818Z,99656.02
2018-07-28T19:06:54.490Z,99671.33
2018-07-28T19:09:27.907Z,99675.88
2018-07-28T19:11:55.669Z,99680.16
2018-07-28T19:14:29.039Z,99683.91
2018-07-28T19:16:57.150Z,99686.61
2018-07-28T19:19:24.932Z,99684.73
2018-07-28T19:21:52.590Z,99700.33
2018-07-28T19:24:20.327Z,99700.86
2018-07-28T19:26:47.974Z,99705.71
2018-07-28T19:29:21.438Z,99710.80
2018-07-28T19:31:49.223Z,99708.47
2018-07-28T19:34:23.518Z,99718.36
2018-07-28T19:36:56.834Z,99726.97
2018-07-28T19:39:24.523Z,99733.52
2018-07-28T19:41:57.890Z,99735.47
2018-07-28T19:44:25.711Z,99736.83
2018-07-28T19:46:53.231Z,99734.67
2018-07-28T19:49:20.871Z,99736.84
2018-07-28T19:51:48.631Z,99733.37
2018-07-28T19:54:16.343Z,99743.85
2018-07-28T19:56:43.958Z,99750.83
2018-07-28T19:59:11.670Z,99753.80
2018-07-28T20:01:39.363Z,99753.77
2018-07-28T20:04:06.998Z,99757.80
2018-07-28T20:06:34.696Z,99756.73
2018-07-28T20:09:02.526Z,99755.66
2018-07-28T20:11:30.278Z,99754.87
2018-07-28T20:13:58.014Z,99753.22
2018-07-28T20:16:25.734Z,99753.75
2018-07-28T20:18:53.783Z,99759.65
2018-07-28T20:21:21.606Z,99757.48
2018-07-28T20:23:49.977Z,99764.98
2018-07-28T20:26:17.628Z,99768.44
2018-07-28T20:28:45.331Z,99767.09
2018-07-28T20:31:13.104Z,99760.13
2018-07-28T20:33:40.842Z,99762.00
2018-07-28T20:36:08.540Z,99758.23
2018-07-28T20:38:36.250Z,99752.89
2018-07-28T20:41:03.958Z,99759.81
2018-07-28T20:43:31.678Z,99756.83
2018-07-28T20:45:59.341Z,99754.66
2018-07-28T20:48:27.067Z,99759.19
2018-07-28T20:50:54.863Z,99767.48
2018-07-28T20:53:22.677Z,99767.75
2018-07-28T20:55:50.434Z,99761.30
2018-07-28T20:58:18.938Z,99767.96
2018-07-28T21:00:46.686Z,99769.80
2018-07-28T21:03:14.459Z,99769.00
2018-07-28T21:05:42.166Z,99769.80
2018-07-28T21:08:09.930Z,99768.20
2018-07-28T21:10:37.723Z,99763.09
2018-07-28T21:13:05.784Z,99761.75
2018-07-28T21:15:33.751Z,99760.14
2018-07-28T21:18:01.460Z,99763.05
2018-07-28T21:20:29.235Z,99765.16
2018-07-28T21:22:56.866Z,99758.47
2018-07-28T21:25:24.547Z,99764.09
2018-07-28T21:27:52.728Z,99768.90
2018-07-28T21:30:20.474Z,99762.48
2018-07-28T21:32:48.387Z,99758.73
2018-07-28T21:35:16.167Z,99766.45
2018-07-28T21:37:43.831Z,99765.95
2018-07-28T21:40:11.578Z,99764.36
2018-07-28T21:42:39.460Z,99770.23
2018-07-28T21:45:07.240Z,99768.94
2018-07-28T21:47:34.915Z,99771.27
2018-07-28T21:50:02.714Z,99775.05
2018-07-28T21:52:30.485Z,99773.98
2018-07-28T21:54:58.134Z,99771.03
2018-07-28T21:57:25.903Z,99764.05
2018-07-28T21:59:53.601Z,99770.63
2018-07-28T22:02:21.346Z,99781.92
2018-07-28T22:04:49.289Z,99782.61
2018-07-28T22:07:16.961Z,99780.77
2018-07-28T22:09:44.611Z,99782.99
2018-07-28T22:12:12.371Z,99787.53
2018-07-28T22:14:40.060Z,99790.84
2018-07-28T22:17:07.844Z,99792.72
2018-07-28T22:19:35.502Z,99792.70
2018-07-28T22:22:03.390Z,99801.00
2018-07-28T22:24:31.044Z,99806.29
2018-07-28T22:26:58.793Z,99803.08
2018-07-28T22:29:26.647Z,99799.88
2018-07-28T22:31:54.431Z,99799.34
2018-07-28T22:34:22.154Z,99801.22
2018-07-28T22:36:49.908Z,99803.08
2018-07-28T22:39:17.536Z,99807.09
2018-07-28T22:41:45.276Z,99801.16
2018-07-28T22:44:13.014Z,99802.77
2018-07-28T22:46:40.793Z,99803.84
2018-07-28T22:49:08.555Z,99814.30
2018-07-28T22:51:36.215Z,99814.30
2018-07-28T22:54:04.198Z,99809.66
2018-07-28T22:56:31.946Z,99812.47
2018-07-28T22:58:59.595Z,99817.27
2018-07-28T23:01:27.250Z,99807.32
2018-07-28T23:03:54.910Z,99805.50
2018-07-28T23:06:22.542Z,99806.11
2018-07-28T23:08:50.187Z,99805.44
2018-07-28T23:11:17.848Z,99813.78
2018-07-28T23:13:45.478Z,99815.70
2018-07-28T23:16:13.147Z,99804.01
2018-07-28T23:18:40.782Z,99804.50
2018-07-28T23:21:08.435Z,99813.71
2018-07-28T23:23:36.084Z,99807.30
2018-07-28T23:26:03.860Z,99809.95
2018-07-28T23:28:31.530Z,99812.98
2018-07-28T23:30:59.186Z,99814.55
2018-07-28T23:33:26.825Z,99807.12
2018-07-28T23:35:54.494Z,99804.74
2018-07-28T23:38:22.186Z,99812.57
2018-07-28T23:40:49.834Z,99813.09
2018-07-28T23:43:17.542Z,99822.50
2018-07-28T23:45:45.213Z,99818.09
2018-07-28T23:48:12.843Z,99817.84
2018-07-28T23:50:40.502Z,99819.15
2018-07-28T23:53:08.234Z,99821.05
2018-07-28T23:55:35.886Z,99825.95
2018-07-28T23:58:03.549Z,99832.94
